Time;durP1;ratioP1;P1;durP2;ratioP2;P2;SDS_P1;SDS_P2;PMS_P1;PMS_P2;Temp;Humidity;BMP_temperature;BMP_pressure;BME280_temperature;BME280_humidity;BME280_pressure;Samples;Min_cycle;Max_cycle;Signal;HPM_P1;HPM_P2
2023/03/03 00:01:04;;;;;;;;;;;;;;;21.04;35.83;102464.19;7227343;19;153529;-58
2023/03/03 00:03:34;;;;;;;;;;;;;;;21.03;36.11;102473.72;7236034;19;157934;-59
2023/03/03 00:06:02;;;;;;;;;;;;;;;21.02;36.17;102468.41;7244741;19;153527;-56
2023/03/03 00:08:29;;;;;;;;;;;;;;;21.03;36.11;102472.91;7252823;19;153407;-56
2023/03/03 00:10:55;;;;;;;;;;;;;;;21.05;36.13;102473.47;7255218;19;153113;-57
2023/03/03 00:13:23;;;;;;;;;;;;;;;21.05;35.84;102467.84;7254267;19;154409;-58
2023/03/03 00:15:51;;;;;;;;;;;;;;;21.03;36.11;102475.72;7250331;19;153942;-57
2023/03/03 00:18:21;;;;;;;;;;;;;;;21.05;35.92;102467.84;7252950;19;153739;-57
2023/03/03 00:20:51;;;;;;;;;;;;;;;21.04;35.97;102468.94;7255274;19;154380;-57
2023/03/03 00:23:23;;;;;;;;;;;;;;;21.03;36.33;102475.72;7255011;19;156038;-57
2023/03/03 00:25:50;;;;;;;;;;;;;;;21.02;36.24;102474.03;7263392;19;153871;-57
2023/03/03 00:28:21;;;;;;;;;;;;;;;21.03;35.88;102484.97;7255613;19;154169;-57
2023/03/03 00:30:48;;;;;;;;;;;;;;;21.01;35.92;102481.59;7252120;19;153082;-57
2023/03/03 00:33:21;;;;;;;;;;;;;;;21.02;36.25;102485.25;7254923;19;155304;-57
2023/03/03 00:35:48;;;;;;;;;;;;;;;21.00;36.02;102496.75;7240071;19;154594;-57
2023/03/03 00:38:17;;;;;;;;;;;;;;;21.00;36.46;102488.34;7246368;19;152433;-58
2023/03/03 00:40:44;;;;;;;;;;;;;;;21.00;36.33;102501.53;7256295;19;153356;-57
2023/03/03 00:43:15;;;;;;;;;;;;;;;20.99;36.46;102497.03;7252448;19;154117;-57
2023/03/03 00:45:44;;;;;;;;;;;;;;;20.99;36.27;102502.66;7249902;19;153142;-58
2023/03/03 00:48:14;;;;;;;;;;;;;;;20.97;36.38;102500.13;7259662;19;151877;-57
2023/03/03 00:50:42;;;;;;;;;;;;;;;20.91;36.56;102498.41;7253241;19;153905;-57
2023/03/03 00:53:11;;;;;;;;;;;;;;;20.91;36.80;102492.78;7250570;19;153435;-57
2023/03/03 00:55:40;;;;;;;;;;;;;;;20.91;37.17;102497.56;7250314;19;154935;-58
2023/03/03 00:58:07;;;;;;;;;;;;;;;20.88;37.17;102495.31;7250620;19;152016;-57
2023/03/03 01:00:35;;;;;;;;;;;;;;;20.85;37.20;102497.53;7249438;19;153367;-58
2023/03/03 01:03:04;;;;;;;;;;;;;;;20.83;37.36;102496.13;7247990;19;154458;-57
2023/03/03 01:05:31;;;;;;;;;;;;;;;20.84;37.34;102492.19;7252565;19;153237;-57
2023/03/03 01:07:58;;;;;;;;;;;;;;;20.83;37.74;102494.16;7258600;19;153983;-58
2023/03/03 01:10:26;;;;;;;;;;;;;;;20.82;37.71;102489.66;7252222;19;153521;-56
2023/03/03 01:12:56;;;;;;;;;;;;;;;20.82;37.61;102505.66;7254124;19;154353;-57
2023/03/03 01:15:23;;;;;;;;;;;;;;;20.80;37.37;102505.09;7249099;19;155418;-57
2023/03/03 01:17:50;;;;;;;;;;;;;;;20.78;37.70;102511.00;7249976;19;152443;-57
2023/03/03 01:20:17;;;;;;;;;;;;;;;20.76;37.58;102513.22;7250959;19;153251;-57
2023/03/03 01:22:44;;;;;;;;;;;;;;;20.75;37.50;102508.72;7250551;19;154602;-57
2023/03/03 01:25:11;;;;;;;;;;;;;;;20.75;37.65;102511.53;7252519;19;152726;-57
2023/03/03 01:27:38;;;;;;;;;;;;;;;20.75;37.57;102508.72;7252166;19;153363;-57
2023/03/03 01:30:06;;;;;;;;;;;;;;;20.72;37.65;102516.81;7256528;19;154759;-57
2023/03/03 01:32:33;;;;;;;;;;;;;;;20.70;37.80;102511.50;7250585;19;155589;-57
2023/03/03 01:35:00;;;;;;;;;;;;;;;20.70;37.84;102519.09;7250576;19;155066;-57
2023/03/03 01:37:27;;;;;;;;;;;;;;;20.64;37.64;102514.53;7254510;19;153884;-57
2023/03/03 01:39:54;;;;;;;;;;;;;;;20.59;38.02;102520.13;7259034;19;154393;-56
2023/03/03 01:42:21;;;;;;;;;;;;;;;20.58;37.99;102515.66;7256763;19;155653;-56
2023/03/03 01:44:48;;;;;;;;;;;;;;;20.56;38.20;102515.91;7258513;19;153746;-57
2023/03/03 01:47:19;;;;;;;;;;;;;;;20.56;38.13;102517.88;7256298;19;154207;-57
2023/03/03 01:49:52;;;;;;;;;;;;;;;20.56;37.82;102512.25;7257945;19;154254;-57
2023/03/03 01:52:22;;;;;;;;;;;;;;;20.55;38.03;102516.16;7263733;19;153832;-57
2023/03/03 01:54:52;;;;;;;;;;;;;;;20.49;38.00;102518.09;7259176;19;155058;-62
2023/03/03 01:57:23;;;;;;;;;;;;;;;20.50;38.18;102521.75;7259319;19;153353;-57
2023/03/03 01:59:51;;;;;;;;;;;;;;;20.46;38.32;102521.44;7255214;19;154353;-56
2023/03/03 02:02:18;;;;;;;;;;;;;;;20.46;38.05;102512.16;7256012;19;153800;-56
2023/03/03 02:04:45;;;;;;;;;;;;;;;20.44;38.06;102520.03;7253907;19;153493;-58
2023/03/03 02:07:13;;;;;;;;;;;;;;;20.42;37.95;102517.47;7251848;19;153547;-58
2023/03/03 02:09:40;;;;;;;;;;;;;;;20.39;37.96;102504.84;7257853;19;154419;-58
2023/03/03 02:12:10;;;;;;;;;;;;;;;20.38;38.37;102507.91;7257866;19;153344;-58
2023/03/03 02:14:37;;;;;;;;;;;;;;;20.36;38.31;102519.41;7263510;19;153383;-59
2023/03/03 02:17:03;;;;;;;;;;;;;;;20.32;38.40;102506.16;7256123;19;154490;-57
2023/03/03 02:19:40;;;;;;;;;;;;;;;20.29;38.41;102506.69;7256378;19;152307;-57
2023/03/03 02:22:07;;;;;;;;;;;;;;;20.28;37.98;102510.59;7254902;19;153657;-57
2023/03/03 02:24:38;;;;;;;;;;;;;;;20.23;38.31;102499.34;7258432;19;154450;-57
2023/03/03 02:27:07;;;;;;;;;;;;;;;20.23;38.33;102507.75;7257213;19;154164;-57
2023/03/03 02:29:34;;;;;;;;;;;;;;;20.20;38.04;102508.28;7254354;19;154820;-57
2023/03/03 02:32:01;;;;;;;;;;;;;;;20.17;38.03;102506.03;7255656;19;154208;-57
2023/03/03 02:34:28;;;;;;;;;;;;;;;20.18;38.21;102511.38;7257389;19;154462;-57
2023/03/03 02:36:54;;;;;;;;;;;;;;;20.14;38.45;102507.41;7259495;19;155155;-57
2023/03/03 02:39:23;;;;;;;;;;;;;;;20.12;38.57;102503.19;7255853;19;153167;-57
2023/03/03 02:41:54;;;;;;;;;;;;;;;20.10;38.46;102508.22;7255919;19;154088;-57
2023/03/03 02:44:22;;;;;;;;;;;;;;;20.07;38.22;102506.78;7256342;19;153284;-57
2023/03/03 02:46:51;;;;;;;;;;;;;;;20.06;38.34;102513.50;7251361;19;152972;-57
2023/03/03 02:49:19;;;;;;;;;;;;;;;20.06;38.42;102509.84;7253625;19;155074;-57
2023/03/03 02:51:45;;;;;;;;;;;;;;;20.05;38.19;102514.63;7253551;19;152983;-58
2023/03/03 02:54:13;;;;;;;;;;;;;;;20.02;38.41;102517.13;7257973;19;153849;-58
2023/03/03 02:56:40;;;;;;;;;;;;;;;20.01;38.60;102516.28;7255688;19;154036;-57
2023/03/03 02:59:07;;;;;;;;;;;;;;;19.99;38.69;102508.09;7261480;19;153098;-57
2023/03/03 03:01:35;;;;;;;;;;;;;;;19.95;38.38;102509.75;7253598;19;153559;-57
2023/03/03 03:04:05;;;;;;;;;;;;;;;19.94;38.26;102510.03;7253456;19;154312;-56
2023/03/03 03:06:34;;;;;;;;;;;;;;;19.92;38.65;102507.50;7252877;19;153812;-57
2023/03/03 03:09:02;;;;;;;;;;;;;;;19.91;38.58;102522.63;7254516;19;154451;-58
2023/03/03 03:11:29;;;;;;;;;;;;;;;19.92;38.62;102517.88;7256829;19;153503;-59
2023/03/03 03:13:55;;;;;;;;;;;;;;;19.89;38.60;102519.25;7254204;19;154150;-57
2023/03/03 03:16:22;;;;;;;;;;;;;;;19.87;38.49;102515.84;7253497;19;154317;-57
2023/03/03 03:18:49;;;;;;;;;;;;;;;19.85;38.45;102518.06;7262762;19;153776;-57
2023/03/03 03:21:16;;;;;;;;;;;;;;;19.85;38.70;102520.88;7254477;19;154862;-58
2023/03/03 03:23:43;;;;;;;;;;;;;;;19.84;38.75;102523.97;7255922;19;153056;-57
2023/03/03 03:26:10;;;;;;;;;;;;;;;19.83;38.55;102528.72;7257253;19;154846;-58
2023/03/03 03:28:37;;;;;;;;;;;;;;;19.81;38.94;102522.53;7255972;19;154683;-57
2023/03/03 03:31:05;;;;;;;;;;;;;;;19.79;38.70;102521.09;7253231;19;154265;-57
2023/03/03 03:33:32;;;;;;;;;;;;;;;19.76;39.03;102519.66;7254115;19;153407;-57
2023/03/03 03:35:59;;;;;;;;;;;;;;;19.76;38.94;102522.47;7254017;19;156602;-57
2023/03/03 03:38:26;;;;;;;;;;;;;;;19.75;38.85;102518.00;7255301;19;154111;-57
2023/03/03 03:40:53;;;;;;;;;;;;;;;19.73;38.98;102519.34;7261198;19;153669;-57
2023/03/03 03:43:20;;;;;;;;;;;;;;;19.72;38.77;102526.91;7255372;19;153217;-57
2023/03/03 03:45:46;;;;;;;;;;;;;;;19.71;38.88;102527.19;7253300;19;155375;-57
2023/03/03 03:48:14;;;;;;;;;;;;;;;19.70;39.15;102529.16;7254559;19;154549;-57
2023/03/03 03:50:41;;;;;;;;;;;;;;;19.70;38.75;102528.31;7254588;19;153815;-57
2023/03/03 03:53:08;;;;;;;;;;;;;;;19.68;39.23;102530.50;7253045;19;154599;-56
2023/03/03 03:55:34;;;;;;;;;;;;;;;19.64;39.24;102533.00;7253162;19;156315;-57
2023/03/03 03:58:01;;;;;;;;;;;;;;;19.61;39.32;102536.34;7254735;19;153254;-56
2023/03/03 04:00:28;;;;;;;;;;;;;;;19.62;39.17;102535.25;7249832;19;154265;-57
2023/03/03 04:02:55;;;;;;;;;;;;;;;19.60;39.46;102536.59;7260276;19;154171;-57
2023/03/03 04:05:22;;;;;;;;;;;;;;;19.58;39.46;102533.22;7250281;19;154054;-57
2023/03/03 04:07:49;;;;;;;;;;;;;;;19.57;39.26;102529.56;7248747;19;154265;-57
2023/03/03 04:10:16;;;;;;;;;;;;;;;19.55;39.42;102531.78;7255231;19;153480;-57
2023/03/03 04:12:43;;;;;;;;;;;;;;;19.52;39.38;102535.97;7254920;19;151873;-57
2023/03/03 04:15:12;;;;;;;;;;;;;;;19.51;39.25;102525.88;7251542;19;154348;-56
2023/03/03 04:17:41;;;;;;;;;;;;;;;19.52;39.23;102540.72;7254651;19;153442;-57
2023/03/03 04:20:11;;;;;;;;;;;;;;;19.51;39.02;102531.47;7252667;19;153488;-57
2023/03/03 04:22:38;;;;;;;;;;;;;;;19.50;39.25;102537.31;7251960;19;154189;-57
2023/03/03 04:25:06;;;;;;;;;;;;;;;19.45;38.95;102540.06;7262893;19;153765;-57
2023/03/03 04:27:34;;;;;;;;;;;;;;;19.46;39.19;102541.78;7252921;19;153366;-57
2023/03/03 04:30:01;;;;;;;;;;;;;;;19.45;39.08;102535.31;7252287;19;152679;-57
2023/03/03 04:32:29;;;;;;;;;;;;;;;19.43;39.09;102534.75;7253538;19;156012;-57
2023/03/03 04:34:56;;;;;;;;;;;;;;;19.40;39.40;102542.78;7253733;19;153983;-57
2023/03/03 04:37:34;;;;;;;;;;;;;;;19.41;39.40;102538.88;7252661;19;153894;-56
2023/03/03 04:40:05;;;;;;;;;;;;;;;19.40;39.06;102534.38;7249561;19;153166;-57
2023/03/03 04:42:32;;;;;;;;;;;;;;;19.39;39.10;102539.16;7251667;19;155318;-57
2023/03/03 04:44:59;;;;;;;;;;;;;;;19.38;39.41;102540.25;7251538;19;153426;-57
2023/03/03 04:47:26;;;;;;;;;;;;;;;19.36;39.53;102536.00;7260752;19;153497;-57
2023/03/03 04:49:53;;;;;;;;;;;;;;;19.37;39.15;102532.09;7253115;19;152412;-57
2023/03/03 04:52:20;;;;;;;;;;;;;;;19.36;39.16;102534.06;7250948;19;154359;-57
2023/03/03 04:54:46;;;;;;;;;;;;;;;19.34;39.22;102529.84;7253014;19;155232;-57
2023/03/03 04:57:13;;;;;;;;;;;;;;;19.34;39.41;102541.03;7251775;19;155300;-57
2023/03/03 04:59:40;;;;;;;;;;;;;;;19.32;39.48;102544.09;7250752;19;152639;-56
2023/03/03 05:02:07;;;;;;;;;;;;;;;19.31;39.20;102547.16;7248999;19;153239;-56
2023/03/03 05:04:33;;;;;;;;;;;;;;;19.27;39.59;102538.41;7254339;19;153727;-57
2023/03/03 05:07:00;;;;;;;;;;;;;;;19.27;39.46;102541.22;7247971;19;155019;-57
2023/03/03 05:09:27;;;;;;;;;;;;;;;19.27;39.55;102538.41;7257268;19;154830;-56
2023/03/03 05:11:54;;;;;;;;;;;;;;;19.23;39.56;102540.06;7250197;19;153957;-56
2023/03/03 05:14:21;;;;;;;;;;;;;;;19.24;39.35;102544.56;7254844;19;154173;-56
2023/03/03 05:16:47;;;;;;;;;;;;;;;19.23;39.39;102544.81;7252534;19;154311;-56
2023/03/03 05:19:14;;;;;;;;;;;;;;;19.23;39.69;102542.84;7254509;19;154587;-56
2023/03/03 05:21:42;;;;;;;;;;;;;;;19.22;39.84;102545.91;7251471;19;152694;-59
2023/03/03 05:24:18;;;;;;;;;;;;;;;19.29;39.29;102550.22;7253906;19;154047;-57
2023/03/03 05:26:45;;;;;;;;;;;;;;;19.35;39.96;102549.16;7253183;19;154155;-57
2023/03/03 05:29:12;;;;;;;;;;;;;;;19.39;39.71;102547.56;7259991;19;153891;-57
2023/03/03 05:31:39;;;;;;;;;;;;;;;19.43;39.83;102545.06;7250690;19;154697;-57
2023/03/03 05:34:06;;;;;;;;;;;;;;;19.48;39.61;102557.22;7252442;19;153839;-57
2023/03/03 05:36:34;;;;;;;;;;;;;;;19.57;39.66;102552.00;7249658;19;153235;-56
2023/03/03 05:39:01;;;;;;;;;;;;;;;19.64;39.87;102549.84;7251003;19;153272;-57
2023/03/03 05:41:29;;;;;;;;;;;;;;;19.68;39.95;102556.59;7250435;19;153152;-56
2023/03/03 05:43:57;;;;;;;;;;;;;;;19.72;39.66;102556.91;7250678;19;154430;-57
2023/03/03 05:46:24;;;;;;;;;;;;;;;19.77;39.83;102551.38;7250359;19;154436;-57
2023/03/03 05:48:51;;;;;;;;;;;;;;;19.81;39.68;102553.38;7250831;19;152996;-57
2023/03/03 05:51:18;;;;;;;;;;;;;;;19.86;40.03;102550.63;7258635;19;154893;-57
2023/03/03 05:53:45;;;;;;;;;;;;;;;19.92;39.85;102551.53;7249005;19;155131;-57
2023/03/03 05:56:12;;;;;;;;;;;;;;;19.97;40.40;102546.81;7252783;19;154175;-57
2023/03/03 05:58:39;;;;;;;;;;;;;;;20.03;40.24;102547.72;7250369;19;152247;-57
2023/03/03 06:01:06;;;;;;;;;;;;;;;20.07;40.52;102543.28;7246946;19;153163;-57
2023/03/03 06:03:33;;;;;;;;;;;;;;;20.13;40.03;102542.19;7250363;19;154206;-57
2023/03/03 06:06:00;;;;;;;;;;;;;;;20.19;40.34;102545.88;7251514;19;154291;-57
2023/03/03 06:08:28;;;;;;;;;;;;;;;20.25;39.96;102542.88;7243799;19;154230;-57
2023/03/03 06:10:55;;;;;;;;;;;;;;;20.31;39.84;102546.56;7251568;19;154265;-57
2023/03/03 06:13:22;;;;;;;;;;;;;;;20.36;40.13;102544.66;7257206;19;154130;-57
2023/03/03 06:15:49;;;;;;;;;;;;;;;20.40;40.12;102543.00;7249224;19;154456;-57
2023/03/03 06:18:16;;;;;;;;;;;;;;;20.47;39.81;102541.94;7251683;19;154078;-57
2023/03/03 06:20:43;;;;;;;;;;;;;;;20.52;39.58;102540.03;7246739;19;153473;-57
2023/03/03 06:23:10;;;;;;;;;;;;;;;20.58;39.73;102540.91;7252834;19;153648;-57
2023/03/03 06:25:38;;;;;;;;;;;;;;;20.62;39.81;102540.09;7258006;19;153131;-56
2023/03/03 06:28:07;;;;;;;;;;;;;;;20.67;39.62;102547.72;7257364;19;154497;-57
2023/03/03 06:30:37;;;;;;;;;;;;;;;20.73;39.80;102547.47;7254825;19;153895;-57
2023/03/03 06:33:04;;;;;;;;;;;;;;;20.78;39.63;102546.66;7258282;19;152408;-57
2023/03/03 06:35:34;;;;;;;;;;;;;;;20.83;39.30;102538.25;7263085;19;153095;-57
2023/03/03 06:38:02;;;;;;;;;;;;;;;20.85;39.38;102542.47;7255834;19;153845;-56
2023/03/03 06:40:33;;;;;;;;;;;;;;;20.92;39.76;102545.06;7255015;19;152842;-57
2023/03/03 06:43:03;;;;;;;;;;;;;;;20.96;39.16;102540.59;7256573;19;152846;-56
2023/03/03 06:45:32;;;;;;;;;;;;;;;21.01;39.36;102549.03;7254953;19;153716;-57
2023/03/03 06:48:04;;;;;;;;;;;;;;;21.06;39.41;102542.59;7255698;19;154149;-57
2023/03/03 06:50:32;;;;;;;;;;;;;;;21.11;39.06;102553.88;7257217;19;153068;-57
2023/03/03 06:53:06;;;;;;;;;;;;;;;21.15;39.13;102550.28;7256922;19;154198;-57
2023/03/03 06:55:38;;;;;;;;;;;;;;;21.20;38.58;102555.06;7256534;19;154171;-57
2023/03/03 06:58:11;;;;;;;;;;;;;;;21.25;38.75;102557.91;7264847;19;153867;-57
2023/03/03 07:00:49;;;;;;;;;;;;;;;21.28;38.46;102562.97;7254479;19;153806;-57
2023/03/03 07:03:24;;;;;;;;;;;;;;;21.31;38.36;102556.78;7256908;19;153282;-57
2023/03/03 07:06:00;;;;;;;;;;;;;;;21.35;38.60;102559.94;7258516;19;154465;-58
2023/03/03 07:08:32;;;;;;;;;;;;;;;21.39;38.26;102567.53;7251447;19;153108;-57
2023/03/03 07:11:08;;;;;;;;;;;;;;;21.40;38.18;102557.09;7253636;19;153493;-57
2023/03/03 07:13:41;;;;;;;;;;;;;;;21.41;38.65;102565.28;7256878;19;154024;-57
2023/03/03 07:16:14;;;;;;;;;;;;;;;21.24;35.76;102564.66;7255674;19;153718;-56
2023/03/03 07:18:51;;;;;;;;;;;;;;;21.29;36.36;102570.31;7263485;19;154663;-57
2023/03/03 07:21:25;;;;;;;;;;;;;;;21.29;36.70;102568.34;7251904;19;153925;-56
2023/03/03 07:24:13;;;;;;;;;;;;;;;21.25;36.58;102571.97;7255453;19;153116;-57
2023/03/03 07:26:42;;;;;;;;;;;;;;;21.21;36.72;102570.84;7253703;19;154404;-56
2023/03/03 07:29:14;;;;;;;;;;;;;;;21.20;36.52;102580.38;7252474;19;153649;-57
2023/03/03 07:31:45;;;;;;;;;;;;;;;21.16;36.58;102577.28;7253945;19;153497;-57
2023/03/03 07:34:19;;;;;;;;;;;;;;;21.17;36.22;102589.34;7257288;19;154664;-56
2023/03/03 07:36:58;;;;;;;;;;;;;;;21.16;36.24;102584.84;7253202;19;152955;-56
2023/03/03 07:39:31;;;;;;;;;;;;;;;21.16;36.50;102591.31;7256134;19;154542;-56
2023/03/03 07:42:07;;;;;;;;;;;;;;;20.98;34.28;102588.94;7259426;19;154104;-57
2023/03/03 07:44:35;;;;;;;;;;;;;;;21.05;34.40;102591.50;7254065;19;154322;-57
2023/03/03 07:47:06;;;;;;;;;;;;;;;21.11;34.64;102593.22;7254880;19;154163;-58
2023/03/03 07:49:36;;;;;;;;;;;;;;;21.14;34.35;102595.50;7253291;19;154285;-57
2023/03/03 07:52:09;;;;;;;;;;;;;;;21.17;34.44;102598.63;7252820;19;152636;-57
2023/03/03 07:54:47;;;;;;;;;;;;;;;21.19;35.11;102610.44;7257007;19;155165;-56
2023/03/03 07:57:26;;;;;;;;;;;;;;;21.22;34.99;102609.88;7251208;19;153239;-56
2023/03/03 07:59:53;;;;;;;;;;;;;;;21.24;35.22;102618.06;7247265;19;153330;-56
2023/03/03 08:02:23;;;;;;;;;;;;;;;21.28;35.48;102605.16;7255414;19;154852;-56
2023/03/03 08:04:55;;;;;;;;;;;;;;;21.32;35.57;102611.06;7264411;19;154108;-57
2023/03/03 08:07:25;;;;;;;;;;;;;;;21.34;35.60;102620.94;7252949;19;153411;-56
2023/03/03 08:09:57;;;;;;;;;;;;;;;21.38;35.56;102612.78;7251639;19;153921;-56
2023/03/03 08:12:28;;;;;;;;;;;;;;;21.39;35.68;102622.94;7252836;19;153714;-56
2023/03/03 08:14:55;;;;;;;;;;;;;;;21.40;35.44;102625.44;7254985;19;154266;-56
2023/03/03 08:17:23;;;;;;;;;;;;;;;21.40;35.44;102625.44;7254502;19;153156;-56
2023/03/03 08:19:52;;;;;;;;;;;;;;;21.42;35.76;102631.66;7256035;19;153059;-56
2023/03/03 08:22:22;;;;;;;;;;;;;;;21.44;35.69;102637.03;7254905;19;154535;-56
2023/03/03 08:24:49;;;;;;;;;;;;;;;21.46;35.35;102627.19;7257192;19;154270;-57
2023/03/03 08:27:16;;;;;;;;;;;;;;;21.48;35.55;102624.94;7265574;19;154141;-58
2023/03/03 08:29:43;;;;;;;;;;;;;;;21.48;35.46;102636.19;7255024;19;154829;-57
2023/03/03 08:32:11;;;;;;;;;;;;;;;21.53;35.35;102639.00;7256276;19;152295;-58
2023/03/03 08:34:38;;;;;;;;;;;;;;;21.60;35.43;102627.50;7254645;19;155240;-57
2023/03/03 08:37:05;;;;;;;;;;;;;;;21.60;34.80;102639.63;7253036;19;153913;-57
2023/03/03 08:39:32;;;;;;;;;;;;;;;21.62;34.95;102634.53;7255900;19;152888;-57
2023/03/03 08:42:00;;;;;;;;;;;;;;;21.65;34.90;102631.22;7254494;19;153360;-57
2023/03/03 08:44:27;;;;;;;;;;;;;;;21.67;34.66;102631.75;7253988;19;153279;-57
2023/03/03 08:46:54;;;;;;;;;;;;;;;21.68;34.70;102627.84;7253782;19;152565;-57
2023/03/03 08:49:21;;;;;;;;;;;;;;;21.68;34.50;102630.66;7262178;19;153910;-57
2023/03/03 08:51:48;;;;;;;;;;;;;;;21.65;34.59;102628.38;7252535;19;152978;-57
2023/03/03 08:54:15;;;;;;;;;;;;;;;21.69;34.65;102634.31;7257661;19;153136;-57
2023/03/03 08:56:42;;;;;;;;;;;;;;;21.66;34.20;102629.25;7257483;19;153881;-57
2023/03/03 08:59:10;;;;;;;;;;;;;;;21.65;34.41;102634.03;7254957;19;153284;-57
2023/03/03 09:01:37;;;;;;;;;;;;;;;21.64;34.53;102621.06;7254698;19;154117;-57
2023/03/03 09:04:04;;;;;;;;;;;;;;;21.64;34.56;102626.69;7255091;19;154525;-57
2023/03/03 09:06:31;;;;;;;;;;;;;;;21.63;34.34;102633.44;7256422;19;153134;-56
2023/03/03 09:08:58;;;;;;;;;;;;;;;21.67;34.96;102628.09;7253815;19;154809;-57
2023/03/03 09:11:26;;;;;;;;;;;;;;;21.80;35.88;102621.97;7259603;19;154359;-54
2023/03/03 09:13:58;;;;;;;;;;;;;;;21.88;36.09;102638.31;7253549;19;154006;-57
2023/03/03 09:16:28;;;;;;;;;;;;;;;21.89;35.94;102634.41;7256777;19;154614;-54
2023/03/03 09:18:56;;;;;;;;;;;;;;;21.83;35.99;102634.63;7259680;19;154459;-54
2023/03/03 09:21:25;;;;;;;;;;;;;;;21.80;36.01;102630.41;7255893;19;153104;-54
2023/03/03 09:23:55;;;;;;;;;;;;;;;21.73;36.24;102636.28;7216321;19;155989;-54
2023/03/03 09:26:28;;;;;;;;;;;;;;;21.68;35.72;102635.41;7256102;19;153722;-54
2023/03/03 09:29:03;;;;;;;;;;;;;;;21.64;35.95;102642.72;7249976;19;154011;-54
2023/03/03 09:31:37;;;;;;;;;;;;;;;21.63;35.73;102629.78;7260282;19;153875;-54
2023/03/03 09:34:08;;;;;;;;;;;;;;;21.62;35.82;102642.16;7251714;19;154162;-54
2023/03/03 09:36:36;;;;;;;;;;;;;;;21.52;35.81;102647.75;7251293;19;153458;-54
2023/03/03 09:39:06;;;;;;;;;;;;;;;21.48;35.73;102638.16;7253634;19;154861;-54
2023/03/03 09:41:36;;;;;;;;;;;;;;;21.43;35.81;102646.56;7251119;19;153674;-54
2023/03/03 09:44:16;;;;;;;;;;;;;;;21.41;35.92;102643.16;7253461;19;153929;-54
2023/03/03 09:46:46;;;;;;;;;;;;;;;21.36;35.96;102648.75;7254000;19;152924;-54
2023/03/03 09:49:16;;;;;;;;;;;;;;;21.33;35.65;102643.69;7258019;19;153199;-54
2023/03/03 09:51:50;;;;;;;;;;;;;;;21.29;36.05;102649.03;7253062;19;153540;-54
2023/03/03 09:54:17;;;;;;;;;;;;;;;21.24;35.80;102649.84;7263256;19;153344;-55
2023/03/03 09:56:46;;;;;;;;;;;;;;;21.21;35.54;102643.91;7254307;19;154169;-54
2023/03/03 09:59:16;;;;;;;;;;;;;;;21.20;35.84;102650.66;7258700;19;153389;-54
2023/03/03 10:01:46;;;;;;;;;;;;;;;21.19;35.37;102646.13;7258199;19;154249;-55
2023/03/03 10:04:16;;;;;;;;;;;;;;;21.19;35.80;102646.13;7261752;19;153655;-55
2023/03/03 10:06:48;;;;;;;;;;;;;;;21.20;35.69;102647.84;7261098;19;153445;-55
2023/03/03 10:09:18;;;;;;;;;;;;;;;21.22;35.15;102654.03;7260927;19;153655;-55
2023/03/03 10:11:45;;;;;;;;;;;;;;;21.32;35.38;102662.53;7260196;19;156157;-55
2023/03/03 10:14:13;;;;;;;;;;;;;;;21.36;35.14;102660.84;7260537;19;154094;-55
2023/03/03 10:16:44;;;;;;;;;;;;;;;21.41;35.00;102666.50;7267114;19;153805;-54
2023/03/03 10:19:14;;;;;;;;;;;;;;;21.47;34.81;102670.22;7260990;19;153279;-54
2023/03/03 10:21:44;;;;;;;;;;;;;;;21.49;34.75;102671.63;7258534;19;153887;-54
2023/03/03 10:24:14;;;;;;;;;;;;;;;21.54;34.81;102682.91;7256540;19;153407;-55
2023/03/03 10:26:43;;;;;;;;;;;;;;;21.56;34.47;102668.56;7259264;19;153168;-55
2023/03/03 10:29:23;;;;;;;;;;;;;;;21.59;34.87;102679.25;7261961;19;153480;-55
2023/03/03 10:31:50;;;;;;;;;;;;;;;21.58;34.39;102681.22;7257113;19;153984;-54
2023/03/03 10:34:20;;;;;;;;;;;;;;;21.61;34.41;102680.69;7260981;19;153588;-54
2023/03/03 10:36:51;;;;;;;;;;;;;;;21.60;34.65;102680.97;7257464;19;153999;-54
2023/03/03 10:39:21;;;;;;;;;;;;;;;21.60;34.29;102678.16;7267850;19;153196;-54
2023/03/03 10:41:58;;;;;;;;;;;;;;;21.59;34.46;102671.66;7262149;19;152923;-55
2023/03/03 10:44:28;;;;;;;;;;;;;;;21.58;34.26;102678.41;7260387;19;153769;-59
2023/03/03 10:46:58;;;;;;;;;;;;;;;21.59;34.16;102677.31;7255421;19;154768;-54
2023/03/03 10:49:27;;;;;;;;;;;;;;;21.57;34.42;102675.91;7258903;19;152777;-53
2023/03/03 10:51:54;;;;;;;;;;;;;;;21.56;34.29;102672.22;7257625;19;153253;-53
2023/03/03 10:54:29;;;;;;;;;;;;;;;21.53;34.25;102678.38;7258315;19;152937;-53
2023/03/03 10:56:59;;;;;;;;;;;;;;;21.53;34.24;102680.38;7257747;19;153100;-54
2023/03/03 10:59:26;;;;;;;;;;;;;;;21.51;34.27;102676.97;7257956;19;153875;-53
2023/03/03 11:01:57;;;;;;;;;;;;;;;21.50;34.09;102678.94;7266006;19;152443;-54
2023/03/03 11:04:32;;;;;;;;;;;;;;;21.48;34.46;102677.53;7256804;19;154742;-54
2023/03/03 11:07:02;;;;;;;;;;;;;;;21.48;34.11;102680.34;7256044;19;154777;-54
2023/03/03 11:09:33;;;;;;;;;;;;;;;21.43;34.53;102686.78;7258638;19;155133;-54
2023/03/03 11:12:01;;;;;;;;;;;;;;;21.42;34.28;102689.88;7255678;19;152710;-55
2023/03/03 11:14:32;;;;;;;;;;;;;;;21.39;34.25;102687.59;7255336;19;153344;-54
2023/03/03 11:17:03;;;;;;;;;;;;;;;21.35;34.26;102690.09;7258221;19;154908;-60
2023/03/03 11:19:34;;;;;;;;;;;;;;;21.33;34.33;102691.50;7257686;19;154007;-54
2023/03/03 11:22:07;;;;;;;;;;;;;;;21.31;34.43;102694.56;7256263;19;153516;-54
2023/03/03 11:24:37;;;;;;;;;;;;;;;21.27;34.10;102688.66;7265349;19;153071;-53
2023/03/03 11:27:07;;;;;;;;;;;;;;;21.28;34.17;102692.31;7259488;19;153062;-53
2023/03/03 11:29:43;;;;;;;;;;;;;;;21.23;34.03;102687.50;7257838;19;152625;-53
2023/03/03 11:32:13;;;;;;;;;;;;;;;21.23;34.02;102692.28;7254701;19;155824;-54
2023/03/03 11:34:43;;;;;;;;;;;;;;;21.20;34.40;102695.63;7257063;19;152675;-54
2023/03/03 11:37:14;;;;;;;;;;;;;;;21.19;34.56;102694.78;7257448;19;157639;-54
2023/03/03 11:39:43;;;;;;;;;;;;;;;21.15;34.48;102693.63;7257461;19;154469;-54
2023/03/03 11:42:13;;;;;;;;;;;;;;;21.12;34.23;102688.50;7258294;19;152693;-54
2023/03/03 11:44:43;;;;;;;;;;;;;;;21.10;34.57;102687.94;7263032;19;153925;-54
2023/03/03 11:47:13;;;;;;;;;;;;;;;21.09;34.40;102688.19;7256770;19;153167;-54
2023/03/03 11:49:41;;;;;;;;;;;;;;;21.05;34.60;102687.91;7257473;19;152635;-54
2023/03/03 11:52:11;;;;;;;;;;;;;;;21.03;34.63;102684.50;7254850;19;155535;-54
2023/03/03 11:54:46;;;;;;;;;;;;;;;21.00;34.14;102675.75;7260878;19;152857;-54
2023/03/03 11:57:14;;;;;;;;;;;;;;;20.97;34.30;102685.59;7260559;19;153336;-54
2023/03/03 11:59:49;;;;;;;;;;;;;;;20.97;34.67;102693.16;7257746;19;154070;-54
2023/03/03 12:02:23;;;;;;;;;;;;;;;20.92;34.67;102682.75;7256799;19;153600;-54
2023/03/03 12:04:54;;;;;;;;;;;;;;;20.89;34.24;102680.47;7258893;19;154038;-54
2023/03/03 12:07:23;;;;;;;;;;;;;;;20.88;34.22;102686.34;7263882;19;153101;-54
2023/03/03 12:09:53;;;;;;;;;;;;;;;20.86;34.70;102689.44;7259886;19;154103;-54
2023/03/03 12:12:22;;;;;;;;;;;;;;;20.83;34.65;102690.81;7254629;19;153716;-54
2023/03/03 12:14:53;;;;;;;;;;;;;;;20.81;34.51;102684.59;7257282;19;154143;-54
2023/03/03 12:17:23;;;;;;;;;;;;;;;20.78;34.61;102678.69;7256386;19;154101;-54
2023/03/03 12:19:53;;;;;;;;;;;;;;;20.76;34.21;102680.91;7256100;19;153219;-56
2023/03/03 12:22:28;;;;;;;;;;;;;;;20.74;34.30;102678.38;7254709;19;153816;-54
2023/03/03 12:24:58;;;;;;;;;;;;;;;20.74;34.69;102677.53;7255572;19;153895;-54
2023/03/03 12:27:29;;;;;;;;;;;;;;;20.70;34.42;102674.41;7255664;19;154366;-54
2023/03/03 12:29:59;;;;;;;;;;;;;;;20.67;34.72;102674.13;7262817;19;152546;-54
2023/03/03 12:32:26;;;;;;;;;;;;;;;20.64;34.29;102669.84;7255545;19;153427;-54
2023/03/03 12:34:58;;;;;;;;;;;;;;;20.64;34.81;102666.19;7257750;19;153564;-54
2023/03/03 12:37:35;;;;;;;;;;;;;;;20.59;34.48;102658.56;7254364;19;155120;-54